createdAt,value
2018-02-19T00:00:37.554Z,1019.63
2018-02-19T00:01:37.500Z,1019.61
2018-02-19T00:02:37.451Z,1019.66
2018-02-19T00:03:37.401Z,1019.64
2018-02-19T00:04:37.353Z,1019.62
2018-02-19T00:05:37.305Z,1019.66
2018-02-19T00:06:37.255Z,1019.68
2018-02-19T00:07:37.206Z,1019.68
2018-02-19T00:08:37.153Z,1019.69
2018-02-19T00:09:37.106Z,1019.63
2018-02-19T00:10:37.057Z,1019.63
2018-02-19T00:11:37.008Z,1019.65
2018-02-19T00:12:36.963Z,1019.65
2018-02-19T00:13:36.907Z,1019.59
2018-02-19T00:14:36.858Z,1019.56
2018-02-19T00:15:36.809Z,1019.56
2018-02-19T00:16:36.760Z,1019.53
2018-02-19T00:17:36.709Z,1019.49
2018-02-19T00:18:36.660Z,1019.46
2018-02-19T00:19:36.612Z,1019.46
2018-02-19T00:20:36.563Z,1019.44
2018-02-19T00:21:36.511Z,1019.46
2018-02-19T00:22:36.465Z,1019.46
2018-02-19T00:23:36.416Z,1019.45
2018-02-19T00:24:36.364Z,1019.45
2018-02-19T00:25:36.316Z,1019.42
2018-02-19T00:26:36.267Z,1019.38
2018-02-19T00:27:36.215Z,1019.41
2018-02-19T00:28:36.168Z,1019.37
2018-02-19T00:29:36.116Z,1019.36
2018-02-19T00:30:36.069Z,1019.40
2018-02-19T00:31:36.019Z,1019.35
2018-02-19T00:32:35.973Z,1019.34
2018-02-19T00:33:35.921Z,1019.30
2018-02-19T00:34:35.871Z,1019.35
2018-02-19T00:35:35.819Z,1019.32
2018-02-19T00:36:35.773Z,1019.33
2018-02-19T00:37:35.727Z,1019.29
2018-02-19T00:38:35.673Z,1019.30
2018-02-19T00:39:35.628Z,1019.29
2018-02-19T00:40:35.579Z,1019.24
2018-02-19T00:41:35.525Z,1019.23
2018-02-19T00:42:35.476Z,1019.24
2018-02-19T00:43:35.429Z,1019.26
2018-02-19T00:44:35.375Z,1019.20
2018-02-19T00:45:35.326Z,1019.21
2018-02-19T00:46:35.277Z,1019.21
2018-02-19T00:47:35.228Z,1019.22
2018-02-19T00:48:35.177Z,1019.22
2018-02-19T00:49:35.132Z,1019.14
2018-02-19T00:50:35.081Z,1019.18
2018-02-19T00:51:35.030Z,1019.14
2018-02-19T00:52:34.984Z,1019.11
2018-02-19T00:53:34.933Z,1019.10
2018-02-19T00:54:34.886Z,1019.10
2018-02-19T00:55:34.835Z,1019.09
2018-02-19T00:56:34.783Z,1019.11
2018-02-19T00:57:34.734Z,1019.12
2018-02-19T00:58:34.683Z,1019.12
2018-02-19T00:59:34.636Z,1019.08
2018-02-19T01:00:34.584Z,1019.05
2018-02-19T01:01:34.533Z,1019.06
2018-02-19T01:02:34.486Z,1019.04
2018-02-19T01:03:34.438Z,1019.01
2018-02-19T01:04:34.386Z,1018.99
2018-02-19T01:05:34.335Z,1019.01
2018-02-19T01:06:34.288Z,1018.98
2018-02-19T01:07:34.244Z,1019.01
2018-02-19T01:08:34.187Z,1019.02
2018-02-19T01:09:34.143Z,1019.02
2018-02-19T01:10:34.088Z,1019.04
2018-02-19T01:11:34.038Z,1019.02
2018-02-19T01:12:33.988Z,1019.06
2018-02-19T01:13:33.941Z,1019.05
2018-02-19T01:14:33.892Z,1019.01
2018-02-19T01:15:33.843Z,1019.00
2018-02-19T01:16:33.795Z,1018.97
2018-02-19T01:17:33.743Z,1018.98
2018-02-19T01:18:33.693Z,1019.00
2018-02-19T01:19:33.641Z,1018.97
2018-02-19T01:20:33.592Z,1018.96
2018-02-19T01:21:33.543Z,1018.95
2018-02-19T01:22:33.493Z,1018.97
2018-02-19T01:23:33.442Z,1018.92
2018-02-19T01:24:33.396Z,1018.94
2018-02-19T01:25:33.344Z,1018.93
2018-02-19T01:26:33.297Z,1018.95
2018-02-19T01:27:33.245Z,1018.95
2018-02-19T01:28:33.197Z,1018.95
2018-02-19T01:29:33.147Z,1018.89
2018-02-19T01:30:33.098Z,1018.88
2018-02-19T01:31:33.045Z,1018.89
2018-02-19T01:32:33.010Z,1018.89
2018-02-19T01:33:32.948Z,1018.83
2018-02-19T01:34:32.899Z,1018.83
2018-02-19T01:35:32.849Z,1018.80
2018-02-19T01:36:32.799Z,1018.78
2018-02-19T01:37:32.754Z,1018.77
2018-02-19T01:38:32.702Z,1018.75
2018-02-19T01:39:32.653Z,1018.71
2018-02-19T01:40:32.605Z,1018.68
2018-02-19T01:41:32.552Z,1018.67
2018-02-19T01:42:32.506Z,1018.66
2018-02-19T01:43:32.457Z,1018.65
2018-02-19T01:44:32.406Z,1018.62
2018-02-19T01:45:32.354Z,1018.64
2018-02-19T01:46:32.304Z,1018.63
2018-02-19T01:47:32.255Z,1018.57
2018-02-19T01:48:32.205Z,1018.59
2018-02-19T01:49:32.160Z,1018.58
2018-02-19T01:50:32.111Z,1018.56
2018-02-19T01:51:32.055Z,1018.55
2018-02-19T01:52:32.009Z,1018.56
2018-02-19T01:53:31.957Z,1018.57
2018-02-19T01:54:31.915Z,1018.55
2018-02-19T01:55:31.856Z,1018.51
2018-02-19T01:56:31.809Z,1018.49
2018-02-19T01:57:31.758Z,1018.48
2018-02-19T01:58:31.709Z,1018.48
2018-02-19T01:59:31.658Z,1018.49
2018-02-19T02:00:31.610Z,1018.50
2018-02-19T02:01:31.562Z,1018.47
2018-02-19T02:02:31.511Z,1018.46
2018-02-19T02:03:31.461Z,1018.43
2018-02-19T02:04:31.412Z,1018.45
2018-02-19T02:05:31.365Z,1018.50
2018-02-19T02:06:31.319Z,1018.46
2018-02-19T02:07:31.265Z,1018.47
2018-02-19T02:08:31.212Z,1018.47
2018-02-19T02:09:31.164Z,1018.45
2018-02-19T02:10:31.114Z,1018.44
2018-02-19T02:11:31.068Z,1018.44
2018-02-19T02:12:31.015Z,1018.41
2018-02-19T02:13:30.971Z,1018.40
2018-02-19T02:14:30.917Z,1018.42
2018-02-19T02:15:30.866Z,1018.42
2018-02-19T02:16:30.825Z,1018.39
2018-02-19T02:17:30.773Z,1018.44
2018-02-19T02:18:30.721Z,1018.44
2018-02-19T02:19:30.671Z,1018.42
2018-02-19T02:20:30.622Z,1018.44
2018-02-19T02:21:30.572Z,1018.40
2018-02-19T02:22:30.523Z,1018.44
2018-02-19T02:23:30.475Z,1018.42
2018-02-19T02:24:30.425Z,1018.43
2018-02-19T02:25:30.374Z,1018.40
2018-02-19T02:26:30.326Z,1018.41
2018-02-19T02:27:30.276Z,1018.45
2018-02-19T02:28:30.222Z,1018.42
2018-02-19T02:29:30.173Z,1018.44
2018-02-19T02:30:30.125Z,1018.44
2018-02-19T02:31:30.073Z,1018.39
2018-02-19T02:32:30.026Z,1018.41
2018-02-19T02:33:29.980Z,1018.44
2018-02-19T02:34:29.929Z,1018.39
2018-02-19T02:35:29.878Z,1018.41
2018-02-19T02:36:29.829Z,1018.44
2018-02-19T02:37:29.779Z,1018.37
2018-02-19T02:38:29.731Z,1018.40
2018-02-19T02:39:29.678Z,1018.41
2018-02-19T02:40:29.633Z,1018.37
2018-02-19T02:41:29.589Z,1018.36
2018-02-19T02:42:29.533Z,1018.44
2018-02-19T02:43:29.479Z,1018.42
2018-02-19T02:44:29.431Z,1018.36
2018-02-19T02:45:29.383Z,1018.37
2018-02-19T02:46:29.335Z,1018.29
2018-02-19T02:47:29.285Z,1018.33
2018-02-19T02:48:29.235Z,1018.36
2018-02-19T02:49:29.184Z,1018.33
2018-02-19T02:50:29.140Z,1018.35
2018-02-19T02:51:31.734Z,1018.33
2018-02-19T02:52:29.036Z,1018.34
2018-02-19T02:53:28.991Z,1018.32
2018-02-19T02:54:28.944Z,1018.31
2018-02-19T02:55:28.894Z,1018.31
2018-02-19T02:56:28.836Z,1018.35
2018-02-19T02:57:28.790Z,1018.32
2018-02-19T02:58:28.746Z,1018.39
2018-02-19T02:59:28.689Z,1018.33
2018-02-19T03:00:28.640Z,1018.32
2018-02-19T03:01:28.589Z,1018.35
2018-02-19T03:02:28.541Z,1018.32
2018-02-19T03:03:28.489Z,1018.25
2018-02-19T03:04:28.449Z,1018.30
2018-02-19T03:05:28.398Z,1018.28
2018-02-19T03:06:28.344Z,1018.33
2018-02-19T03:07:28.293Z,1018.31
2018-02-19T03:08:28.242Z,1018.34
2018-02-19T03:09:28.194Z,1018.31
2018-02-19T03:10:28.145Z,1018.32
2018-02-19T03:11:28.093Z,1018.32
2018-02-19T03:12:28.108Z,1018.38
2018-02-19T03:13:28.077Z,1018.32
2018-02-19T03:14:27.947Z,1018.37
2018-02-19T03:15:27.902Z,1018.39
2018-02-19T03:16:27.848Z,1018.38
2018-02-19T03:17:27.799Z,1018.36
2018-02-19T03:18:27.750Z,1018.37
2018-02-19T03:19:27.699Z,1018.38
2018-02-19T03:20:27.649Z,1018.43
2018-02-19T03:21:27.603Z,1018.44
2018-02-19T03:22:27.551Z,1018.39
2018-02-19T03:23:27.499Z,1018.43
2018-02-19T03:24:27.450Z,1018.42
2018-02-19T03:25:27.400Z,1018.38
2018-02-19T03:26:27.353Z,1018.41
2018-02-19T03:27:27.301Z,1018.42
2018-02-19T03:28:27.254Z,1018.43
2018-02-19T03:29:27.209Z,1018.43
2018-02-19T03:30:27.159Z,1018.45
2018-02-19T03:31:27.142Z,1018.45
2018-02-19T03:32:27.055Z,1018.46
2018-02-19T03:33:27.008Z,1018.42
2018-02-19T03:34:26.960Z,1018.46
2018-02-19T03:35:26.953Z,1018.43
2018-02-19T03:36:26.859Z,1018.48
2018-02-19T03:37:26.808Z,1018.45
2018-02-19T03:38:26.764Z,1018.45
2018-02-19T03:39:26.708Z,1018.42
2018-02-19T03:40:26.663Z,1018.38
2018-02-19T03:41:26.614Z,1018.40
2018-02-19T03:42:26.561Z,1018.37
2018-02-19T03:43:26.510Z,1018.39
2018-02-19T03:44:26.465Z,1018.39
2018-02-19T03:45:26.413Z,1018.36
2018-02-19T03:46:26.363Z,1018.29
2018-02-19T03:47:26.309Z,1018.31
2018-02-19T03:48:26.263Z,1018.28
2018-02-19T03:49:26.216Z,1018.25
2018-02-19T03:50:26.171Z,1018.22
2018-02-19T03:51:26.112Z,1018.24
2018-02-19T03:52:26.071Z,1018.26
2018-02-19T03:53:26.021Z,1018.19
2018-02-19T03:54:25.972Z,1018.15
2018-02-19T03:55:25.916Z,1018.11
2018-02-19T03:56:25.868Z,1018.14
2018-02-19T03:57:25.818Z,1018.10
2018-02-19T03:58:25.771Z,1018.10
2018-02-19T03:59:25.716Z,1018.05
2018-02-19T04:00:25.672Z,1018.04
2018-02-19T04:01:25.620Z,1018.01
2018-02-19T04:02:25.571Z,1018.04
2018-02-19T04:03:25.527Z,1017.98
2018-02-19T04:04:25.472Z,1017.90
2018-02-19T04:05:25.420Z,1017.91
2018-02-19T04:06:25.373Z,1017.84
2018-02-19T04:07:25.322Z,1017.92
2018-02-19T04:08:25.270Z,1017.86
2018-02-19T04:09:25.224Z,1017.89
2018-02-19T04:10:25.185Z,1017.85
2018-02-19T04:11:25.128Z,1017.89
2018-02-19T04:12:25.073Z,1017.86
2018-02-19T04:13:25.023Z,1017.84
2018-02-19T04:14:24.983Z,1017.87
2018-02-19T04:15:24.929Z,1017.79
2018-02-19T04:16:24.879Z,1017.78
2018-02-19T04:17:24.834Z,1017.75
2018-02-19T04:18:24.775Z,1017.72
2018-02-19T04:19:24.726Z,1017.71
2018-02-19T04:20:24.675Z,1017.70
2018-02-19T04:21:24.630Z,1017.69
2018-02-19T04:22:24.578Z,1017.67
2018-02-19T04:23:24.529Z,1017.69
2018-02-19T04:24:24.477Z,1017.61
2018-02-19T04:25:24.427Z,1017.60
2018-02-19T04:26:24.385Z,1017.57
2018-02-19T04:27:24.327Z,1017.55
2018-02-19T04:28:24.278Z,1017.53
2018-02-19T04:29:24.229Z,1017.51
2018-02-19T04:30:24.180Z,1017.53
2018-02-19T04:31:24.128Z,1017.53
2018-02-19T04:32:24.086Z,1017.50
2018-02-19T04:33:24.030Z,1017.54
2018-02-19T04:34:23.980Z,1017.51
2018-02-19T04:35:23.936Z,1017.47
2018-02-19T04:36:23.891Z,1017.46
2018-02-19T04:37:23.829Z,1017.41
2018-02-19T04:38:23.813Z,1017.43
2018-02-19T04:39:23.782Z,1017.38
2018-02-19T04:40:23.694Z,1017.40
2018-02-19T04:41:23.639Z,1017.35
2018-02-19T04:42:23.583Z,1017.42
2018-02-19T04:43:23.536Z,1017.43
2018-02-19T04:44:23.491Z,1017.41
2018-02-19T04:45:23.434Z,1017.39
2018-02-19T04:46:23.382Z,1017.34
2018-02-19T04:47:23.333Z,1017.38
2018-02-19T04:48:23.285Z,1017.39
2018-02-19T04:49:23.234Z,1017.39
2018-02-19T04:50:23.184Z,1017.41
2018-02-19T04:51:23.135Z,1017.38
2018-02-19T04:52:23.087Z,1017.42
2018-02-19T04:53:23.041Z,1017.41
2018-02-19T04:54:23.002Z,1017.44
2018-02-19T04:55:22.953Z,1017.41
2018-02-19T04:56:22.887Z,1017.41
2018-02-19T04:57:22.835Z,1017.44
2018-02-19T04:58:22.793Z,1017.44
2018-02-19T04:59:22.738Z,1017.43
2018-02-19T05:00:22.727Z,1017.48
2018-02-19T05:01:22.642Z,1017.43
2018-02-19T05:02:22.587Z,1017.44
2018-02-19T05:03:22.540Z,1017.39
2018-02-19T05:04:22.496Z,1017.41
2018-02-19T05:05:22.439Z,1017.40
2018-02-19T05:06:22.393Z,1017.39
2018-02-19T05:07:22.338Z,1017.39
2018-02-19T05:08:22.289Z,1017.41
2018-02-19T05:09:22.240Z,1017.42
2018-02-19T05:10:22.192Z,1017.43
2018-02-19T05:11:22.139Z,1017.41
2018-02-19T05:12:22.090Z,1017.43
2018-02-19T05:13:22.042Z,1017.48
2018-02-19T05:14:21.999Z,1017.44
2018-02-19T05:15:21.946Z,1017.45
2018-02-19T05:16:21.896Z,1017.42
2018-02-19T05:17:21.842Z,1017.45
2018-02-19T05:18:21.794Z,1017.41
2018-02-19T05:19:21.742Z,1017.41
2018-02-19T05:20:21.695Z,1017.36
2018-02-19T05:21:21.643Z,1017.34
2018-02-19T05:22:21.600Z,1017.32
2018-02-19T05:23:21.546Z,1017.32
2018-02-19T05:24:21.496Z,1017.34
2018-02-19T05:25:21.443Z,1017.33
2018-02-19T05:26:21.393Z,1017.29
2018-02-19T05:27:21.342Z,1017.33
2018-02-19T05:28:21.298Z,1017.29
2018-02-19T05:29:21.261Z,1017.26
2018-02-19T05:30:21.197Z,1017.20
2018-02-19T05:31:21.145Z,1017.20
2018-02-19T05:32:21.095Z,1017.19
2018-02-19T05:33:21.048Z,1017.21
2018-02-19T05:34:21.000Z,1017.19
2018-02-19T05:35:20.950Z,1017.26
2018-02-19T05:36:20.897Z,1017.26
2018-02-19T05:37:20.858Z,1017.26
2018-02-19T05:38:20.800Z,1017.22
2018-02-19T05:39:20.748Z,1017.26
2018-02-19T05:40:20.702Z,1017.26
2018-02-19T05:41:20.650Z,1017.24
2018-02-19T05:42:20.599Z,1017.24
2018-02-19T05:43:20.549Z,1017.20
2018-02-19T05:44:20.500Z,1017.22
2018-02-19T05:45:20.449Z,1017.22
2018-02-19T05:46:20.400Z,1017.25
2018-02-19T05:47:20.350Z,1017.26
2018-02-19T05:48:20.307Z,1017.33
2018-02-19T05:49:20.252Z,1017.33
2018-02-19T05:50:20.205Z,1017.31
2018-02-19T05:51:20.151Z,1017.29
2018-02-19T05:52:20.103Z,1017.30
2018-02-19T05:53:20.052Z,1017.30
2018-02-19T05:54:20.000Z,1017.31
2018-02-19T05:55:19.951Z,1017.27
2018-02-19T05:56:19.904Z,1017.28
2018-02-19T05:57:19.853Z,1017.30
2018-02-19T05:58:19.808Z,1017.23
2018-02-19T05:59:19.756Z,1017.24
2018-02-19T06:00:19.702Z,1017.21
2018-02-19T06:01:19.659Z,1017.20
2018-02-19T06:02:19.607Z,1017.24
2018-02-19T06:03:19.554Z,1017.25
2018-02-19T06:04:19.505Z,1017.29
2018-02-19T06:05:19.456Z,1017.25
2018-02-19T06:06:19.408Z,1017.28
2018-02-19T06:07:19.358Z,1017.28
2018-02-19T06:08:19.308Z,1017.32
2018-02-19T06:09:19.260Z,1017.32
2018-02-19T06:10:19.209Z,1017.34
2018-02-19T06:11:19.157Z,1017.26
2018-02-19T06:12:19.114Z,1017.34
2018-02-19T06:13:19.061Z,1017.29
2018-02-19T06:14:19.008Z,1017.37
2018-02-19T06:15:18.959Z,1017.36
2018-02-19T06:16:18.910Z,1017.38
2018-02-19T06:17:18.921Z,1017.38
2018-02-19T06:18:18.811Z,1017.43
2018-02-19T06:19:18.759Z,1017.43
2018-02-19T06:20:18.711Z,1017.46
2018-02-19T06:21:18.661Z,1017.43
2018-02-19T06:22:18.613Z,1017.47
2018-02-19T06:23:18.562Z,1017.48
2018-02-19T06:24:18.511Z,1017.46
2018-02-19T06:25:18.467Z,1017.42
2018-02-19T06:26:18.416Z,1017.47
2018-02-19T06:27:18.367Z,1017.46
2018-02-19T06:28:18.316Z,1017.45
2018-02-19T06:29:18.264Z,1017.48
2018-02-19T06:30:18.220Z,1017.49
2018-02-19T06:31:18.168Z,1017.48
2018-02-19T06:32:18.118Z,1017.44
2018-02-19T06:33:18.068Z,1017.48
2018-02-19T06:34:18.020Z,1017.51
2018-02-19T06:35:17.972Z,1017.48
2018-02-19T06:36:17.922Z,1017.49
2018-02-19T06:37:17.870Z,1017.48
2018-02-19T06:38:17.821Z,1017.47
2018-02-19T06:39:17.770Z,1017.50
2018-02-19T06:40:17.725Z,1017.49
2018-02-19T06:41:17.675Z,1017.50
2018-02-19T06:42:17.623Z,1017.51
2018-02-19T06:43:17.572Z,1017.52
2018-02-19T06:44:17.528Z,1017.54
2018-02-19T06:45:17.475Z,1017.53
2018-02-19T06:46:17.423Z,1017.61
2018-02-19T06:47:17.374Z,1017.58
2018-02-19T06:48:17.326Z,1017.58
2018-02-19T06:49:17.281Z,1017.59
2018-02-19T06:50:17.226Z,1017.61
2018-02-19T06:51:17.176Z,1017.60
2018-02-19T06:52:17.127Z,1017.59
2018-02-19T06:53:17.077Z,1017.56
2018-02-19T06:54:17.028Z,1017.55
2018-02-19T06:55:16.978Z,1017.56
2018-02-19T06:56:16.932Z,1017.57
2018-02-19T06:57:16.880Z,1017.53
2018-02-19T06:58:16.831Z,1017.54
2018-02-19T06:59:16.780Z,1017.54
2018-02-19T07:00:16.734Z,1017.56
2018-02-19T07:01:16.683Z,1017.55
2018-02-19T07:02:16.634Z,1017.53
2018-02-19T07:03:16.584Z,1017.52
2018-02-19T07:04:16.540Z,1017.53
2018-02-19T07:05:16.489Z,1017.50
2018-02-19T07:06:16.437Z,1017.54
2018-02-19T07:07:16.384Z,1017.51
2018-02-19T07:08:16.338Z,1017.53
2018-02-19T07:09:16.287Z,1017.49
2018-02-19T07:10:16.237Z,1017.47
2018-02-19T07:11:16.188Z,1017.48
2018-02-19T07:12:16.140Z,1017.49
2018-02-19T07:13:16.091Z,1017.49
2018-02-19T07:14:16.042Z,1017.49
2018-02-19T07:15:15.993Z,1017.50
2018-02-19T07:16:15.943Z,1017.47
2018-02-19T07:17:15.895Z,1017.45
2018-02-19T07:18:15.844Z,1017.50
2018-02-19T07:19:15.793Z,1017.52
2018-02-19T07:20:15.746Z,1017.51
2018-02-19T07:21:15.699Z,1017.47
2018-02-19T07:22:15.646Z,1017.45
2018-02-19T07:23:15.595Z,1017.44
2018-02-19T07:24:15.547Z,1017.43
2018-02-19T07:25:15.499Z,1017.44
2018-02-19T07:26:15.450Z,1017.44
2018-02-19T07:27:15.400Z,1017.39
2018-02-19T07:28:15.350Z,1017.34
2018-02-19T07:29:15.301Z,1017.34
2018-02-19T07:30:15.256Z,1017.23
2018-02-19T07:31:15.202Z,1017.20
2018-02-19T07:32:15.151Z,1017.20
2018-02-19T07:33:15.103Z,1017.18
2018-02-19T07:34:15.058Z,1017.21
2018-02-19T07:35:15.004Z,1017.22
2018-02-19T07:36:14.956Z,1017.23
2018-02-19T07:37:14.909Z,1017.22
2018-02-19T07:38:14.860Z,1017.22
2018-02-19T07:39:14.805Z,1017.12
2018-02-19T07:40:14.757Z,1017.20
2018-02-19T07:41:14.713Z,1017.15
2018-02-19T07:42:14.661Z,1017.11
2018-02-19T07:43:14.609Z,1017.14
2018-02-19T07:44:14.607Z,1017.11
2018-02-19T07:45:14.516Z,1017.15
2018-02-19T07:46:14.462Z,1017.12
2018-02-19T07:47:14.416Z,1017.11
2018-02-19T07:48:14.368Z,1017.14
2018-02-19T07:49:14.312Z,1017.09
2018-02-19T07:50:14.269Z,1017.11
2018-02-19T07:51:14.218Z,1017.11
2018-02-19T07:52:14.166Z,1017.07
2018-02-19T07:53:14.118Z,1017.06
2018-02-19T07:54:14.069Z,1017.10
2018-02-19T07:55:14.018Z,1017.05
2018-02-19T07:56:13.997Z,1017.06
2018-02-19T07:57:13.919Z,1017.05
2018-02-19T07:58:13.869Z,1017.01
2018-02-19T07:59:13.822Z,1017.08
2018-02-19T08:00:13.770Z,1017.11
2018-02-19T08:01:13.723Z,1017.13
2018-02-19T08:02:13.672Z,1017.08
2018-02-19T08:03:13.628Z,1017.06
2018-02-19T08:04:13.575Z,1017.11
2018-02-19T08:05:13.528Z,1017.10
2018-02-19T08:06:13.476Z,1017.08
2018-02-19T08:07:13.427Z,1017.08
2018-02-19T08:08:13.376Z,1017.08
2018-02-19T08:09:13.327Z,1017.06
2018-02-19T08:10:13.280Z,1017.11
2018-02-19T08:11:13.229Z,1017.14
2018-02-19T08:12:13.182Z,1017.11
2018-02-19T08:13:13.134Z,1017.16
2018-02-19T08:14:13.087Z,1017.13
2018-02-19T08:15:13.037Z,1017.14
2018-02-19T08:16:12.983Z,1017.17
2018-02-19T08:17:12.936Z,1017.15
2018-02-19T08:18:12.887Z,1017.20
2018-02-19T08:19:12.837Z,1017.22
2018-02-19T08:20:12.787Z,1017.15
2018-02-19T08:21:12.744Z,1017.15
2018-02-19T08:22:12.689Z,1017.17
2018-02-19T08:23:12.641Z,1017.10
2018-02-19T08:24:12.591Z,1017.04
2018-02-19T08:25:12.544Z,1017.08
2018-02-19T08:26:12.498Z,1017.01
2018-02-19T08:27:12.447Z,1016.99
2018-02-19T08:28:12.395Z,1016.97
2018-02-19T08:29:12.350Z,1016.95
2018-02-19T08:30:12.297Z,1016.95
2018-02-19T08:31:12.250Z,1016.99
2018-02-19T08:32:12.200Z,1016.94
2018-02-19T08:33:12.150Z,1016.96
2018-02-19T08:34:12.102Z,1016.92
2018-02-19T08:35:12.052Z,1016.94
2018-02-19T08:36:12.004Z,1016.92
2018-02-19T08:37:11.957Z,1016.97
2018-02-19T08:38:11.907Z,1016.95
2018-02-19T08:39:11.857Z,1017.00
2018-02-19T08:40:11.808Z,1017.01
2018-02-19T08:41:11.763Z,1017.04
2018-02-19T08:42:11.711Z,1017.06
2018-02-19T08:43:11.663Z,1017.03
2018-02-19T08:44:11.614Z,1017.02
2018-02-19T08:45:11.565Z,1017.00
2018-02-19T08:46:11.515Z,1017.00
2018-02-19T08:47:11.467Z,1016.96
2018-02-19T08:48:11.421Z,1016.97
2018-02-19T08:49:11.369Z,1016.93
2018-02-19T08:50:11.322Z,1016.92
2018-02-19T08:51:11.273Z,1016.91
2018-02-19T08:52:11.224Z,1016.87
2018-02-19T08:53:11.176Z,1016.84
2018-02-19T08:54:11.126Z,1016.82
2018-02-19T08:55:11.079Z,1016.82
2018-02-19T08:56:11.027Z,1016.81
2018-02-19T08:57:10.978Z,1016.79
2018-02-19T08:58:10.931Z,1016.76
2018-02-19T08:59:10.882Z,1016.80
2018-02-19T09:00:10.835Z,1016.77
2018-02-19T09:01:10.788Z,1016.75
2018-02-19T09:02:10.736Z,1016.72
2018-02-19T09:03:10.689Z,1016.76
2018-02-19T09:04:10.646Z,1016.79
2018-02-19T09:05:10.590Z,1016.81
2018-02-19T09:06:10.543Z,1016.74
2018-02-19T09:07:10.496Z,1016.76
2018-02-19T09:08:10.445Z,1016.78
2018-02-19T09:09:10.395Z,1016.76
2018-02-19T09:10:10.349Z,1016.77
2018-02-19T09:11:10.301Z,1016.81
2018-02-19T09:12:10.252Z,1016.82
2018-02-19T09:13:10.204Z,1016.83
2018-02-19T09:14:10.154Z,1016.80
2018-02-19T09:15:10.105Z,1016.76
2018-02-19T09:16:10.059Z,1016.72
2018-02-19T09:17:10.009Z,1016.75
2018-02-19T09:18:09.961Z,1016.77
2018-02-19T09:19:09.910Z,1016.73
2018-02-19T09:20:09.864Z,1016.76
2018-02-19T09:21:09.822Z,1016.70
2018-02-19T09:22:09.767Z,1016.73
2018-02-19T09:23:09.718Z,1016.69
2018-02-19T09:24:09.669Z,1016.70
2018-02-19T09:25:09.625Z,1016.74
2018-02-19T09:26:09.575Z,1016.71
2018-02-19T09:27:09.524Z,1016.74
2018-02-19T09:28:09.482Z,1016.72
2018-02-19T09:29:09.430Z,1016.76
2018-02-19T09:30:09.382Z,1016.79
2018-02-19T09:31:09.333Z,1016.79
2018-02-19T09:32:09.285Z,1016.77
2018-02-19T09:33:09.238Z,1016.76
2018-02-19T09:34:09.190Z,1016.78
2018-02-19T09:35:09.143Z,1016.76
2018-02-19T09:36:09.142Z,1016.76
2018-02-19T09:37:09.044Z,1016.77
2018-02-19T09:38:09.050Z,1016.78
2018-02-19T09:39:08.948Z,1016.70
2018-02-19T09:40:08.902Z,1016.70
2018-02-19T09:41:08.861Z,1016.68
2018-02-19T09:42:08.806Z,1016.75
2018-02-19T09:43:08.758Z,1016.68
2018-02-19T09:44:08.710Z,1016.71
2018-02-19T09:45:08.663Z,1016.75
2018-02-19T09:46:08.615Z,1016.69
2018-02-19T09:47:08.567Z,1016.74
2018-02-19T09:48:08.518Z,1016.71
2018-02-19T09:49:08.472Z,1016.73
2018-02-19T09:50:08.426Z,1016.73
2018-02-19T09:51:08.375Z,1016.71
2018-02-19T09:52:08.330Z,1016.70
2018-02-19T09:53:08.279Z,1016.68
2018-02-19T09:54:08.234Z,1016.63
2018-02-19T09:55:08.184Z,1016.62
2018-02-19T09:56:08.137Z,1016.60
2018-02-19T09:57:08.107Z,1016.59
2018-02-19T09:58:08.041Z,1016.63
2018-02-19T09:59:07.994Z,1016.58
2018-02-19T10:00:07.948Z,1016.62
2018-02-19T10:01:07.901Z,1016.62
2018-02-19T10:02:07.851Z,1016.61
2018-02-19T10:03:07.802Z,1016.63
2018-02-19T10:04:07.757Z,1016.62
2018-02-19T10:05:07.708Z,1016.67
2018-02-19T10:06:07.660Z,1016.66
2018-02-19T10:07:07.611Z,1016.63
2018-02-19T10:08:07.563Z,1016.65
2018-02-19T10:09:07.517Z,1016.63
2018-02-19T10:10:07.472Z,1016.65
2018-02-19T10:11:07.423Z,1016.61
2018-02-19T10:12:07.385Z,1016.60
2018-02-19T10:13:07.329Z,1016.60
2018-02-19T10:14:07.279Z,1016.55
2018-02-19T10:15:07.239Z,1016.63
2018-02-19T10:16:07.185Z,1016.63
2018-02-19T10:17:07.136Z,1016.58
2018-02-19T10:18:07.089Z,1016.60
2018-02-19T10:19:07.040Z,1016.62
2018-02-19T10:20:06.999Z,1016.59
2018-02-19T10:21:06.952Z,1016.61
2018-02-19T10:22:06.899Z,1016.56
2018-02-19T10:23:06.852Z,1016.63
2018-02-19T10:24:06.806Z,1016.60
2018-02-19T10:25:06.757Z,1016.62
2018-02-19T10:26:06.709Z,1016.65
2018-02-19T10:27:06.660Z,1016.67
2018-02-19T10:28:06.613Z,1016.66
2018-02-19T10:29:06.566Z,1016.62
2018-02-19T10:30:06.521Z,1016.63
2018-02-19T10:31:06.473Z,1016.63
2018-02-19T10:32:06.430Z,1016.64
2018-02-19T10:33:06.381Z,1016.61
2018-02-19T10:34:06.332Z,1016.57
2018-02-19T10:35:06.282Z,1016.60
2018-02-19T10:36:06.235Z,1016.60
2018-02-19T10:37:06.193Z,1016.63
2018-02-19T10:38:06.143Z,1016.62
2018-02-19T10:39:06.093Z,1016.63
2018-02-19T10:40:06.049Z,1016.58
2018-02-19T10:41:06.003Z,1016.56
2018-02-19T10:42:05.954Z,1016.52
2018-02-19T10:43:05.907Z,1016.53
2018-02-19T10:44:05.861Z,1016.53
2018-02-19T10:45:05.810Z,1016.50
2018-02-19T10:46:05.770Z,1016.51
2018-02-19T10:47:05.719Z,1016.54
2018-02-19T10:48:05.673Z,1016.55
2018-02-19T10:49:05.623Z,1016.50
2018-02-19T10:50:05.578Z,1016.57
2018-02-19T10:51:05.528Z,1016.53
2018-02-19T10:52:05.482Z,1016.59
2018-02-19T10:53:05.435Z,1016.55
2018-02-19T10:54:05.438Z,1016.56
2018-02-19T10:55:05.341Z,1016.65
2018-02-19T10:56:05.295Z,1016.60
2018-02-19T10:57:05.248Z,1016.57
2018-02-19T10:58:05.205Z,1016.62
2018-02-19T10:59:05.156Z,1016.57
2018-02-19T11:00:05.117Z,1016.59
2018-02-19T11:01:05.065Z,1016.57
2018-02-19T11:02:05.017Z,1016.55
2018-02-19T11:03:04.970Z,1016.51
2018-02-19T11:04:04.957Z,1016.55
2018-02-19T11:05:04.874Z,1016.51
2018-02-19T11:06:04.868Z,1016.50
2018-02-19T11:07:04.782Z,1016.45
2018-02-19T11:08:04.734Z,1016.45
2018-02-19T11:09:04.695Z,1016.44
2018-02-19T11:10:04.641Z,1016.45
2018-02-19T11:11:04.595Z,1016.39
2018-02-19T11:12:04.559Z,1016.42
2018-02-19T11:13:04.501Z,1016.44
2018-02-19T11:14:04.460Z,1016.44
2018-02-19T11:15:04.410Z,1016.46
2018-02-19T11:16:04.366Z,1016.46
2018-02-19T11:17:04.315Z,1016.41
2018-02-19T11:18:04.268Z,1016.39
2018-02-19T11:19:04.224Z,1016.37
2018-02-19T11:20:04.179Z,1016.36
2018-02-19T11:21:04.130Z,1016.29
2018-02-19T11:22:04.083Z,1016.31
2018-02-19T11:23:04.035Z,1016.31
2018-02-19T11:24:03.995Z,1016.27
2018-02-19T11:25:03.945Z,1016.28
2018-02-19T11:26:03.898Z,1016.26
2018-02-19T11:27:03.853Z,1016.23
2018-02-19T11:28:03.805Z,1016.27
2018-02-19T11:29:03.760Z,1016.22
2018-02-19T11:30:03.713Z,1016.21
2018-02-19T11:31:03.668Z,1016.24
2018-02-19T11:32:03.619Z,1016.21
2018-02-19T11:33:03.576Z,1016.20
2018-02-19T11:34:03.529Z,1016.19
2018-02-19T11:35:03.481Z,1016.18
2018-02-19T11:36:03.435Z,1016.18
2018-02-19T11:37:03.389Z,1016.19
2018-02-19T11:38:03.347Z,1016.14
2018-02-19T11:39:03.304Z,1016.19
2018-02-19T11:40:03.257Z,1016.17
2018-02-19T11:41:03.203Z,1016.24
2018-02-19T11:42:03.158Z,1016.16
2018-02-19T11:43:03.112Z,1016.20
2018-02-19T11:44:03.067Z,1016.17
2018-02-19T11:45:03.020Z,1016.18
2018-02-19T11:46:02.973Z,1016.17
2018-02-19T11:47:02.932Z,1016.19
2018-02-19T11:48:02.883Z,1016.18
2018-02-19T11:49:02.835Z,1016.18
2018-02-19T11:50:02.794Z,1016.17
2018-02-19T11:51:02.746Z,1016.17
2018-02-19T11:52:02.703Z,1016.09
2018-02-19T11:53:02.675Z,1016.04
2018-02-19T11:54:02.609Z,1016.13
2018-02-19T11:55:02.562Z,1016.14
2018-02-19T11:56:02.516Z,1016.09
2018-02-19T11:57:02.470Z,1016.08
2018-02-19T11:58:02.426Z,1016.05
2018-02-19T11:59:02.379Z,1016.06
2018-02-19T12:00:02.335Z,1016.06
2018-02-19T12:01:02.322Z,1016.00
2018-02-19T12:02:02.240Z,1016.09
2018-02-19T12:03:02.200Z,1016.03
2018-02-19T12:04:02.150Z,1016.02
2018-02-19T12:05:02.106Z,1016.01